Clarendon, Texas
Current Conditions -  °F | °C
As of 3:35 AM on Friday 24 Oct 2014 (Local Time) from KPPA Reporting Station
Haze Haze  
Wind Chill: 56°   Ceiling: Unl
Heat Index: 56°   Visibility: 5mi
Dew Point: 55°   Wind: 7mph
Humidity: 97%   Direction: 190°S
Pressure: 30.12"   Gusts: NA
Location:  34.94°N, 100.89°W
Report Text: KPPA 240835Z AUTO 19006KT 5SM BR CLR 13/13 A3012 RMK AO2 T01330128 PNO
Loading
Personal Weather Stations






























Interactive Weather Map
Tropical Storm Tracking
New forecast layout! Learn more

10-Day Weather Forecast

Advertisements
Track Severe Weather on mobile